Elk City, Kansas
Current Conditions -  °F | °C
As of 8:55 AM on Saturday 20 Dec 2014 (Local Time) from KIDP Reporting Station
Overcast Overcast  
Wind Chill: 37°   Ceiling: 2100
Heat Index: 37°   Visibility: 10mi
Dew Point: 34°   Wind: 3mph
Humidity: 87%   Direction: 160°SSE
Pressure: 30.23"   Gusts: NA
Location:  37.29°N, 95.91°W
Report Text: KIDP 201455Z AUTO 16003KT 10SM OVC021 03/01 A3023 RMK AO2
Loading
Personal Weather Stations






























Interactive Weather Map New forecast layout! Learn more

10-Day Weather Forecast

Advertisements
Track Severe Weather on mobile